Latest Weather Observations for Brisbane

IDQ60901

Issued at 8:41 am EST Friday 6 March 2015 (issued every 10 minutes, with the page automatically refreshed every 10 minutes)

About weather observations | Map of Brisbane area stations | Latest observations for Brisbane area | Other Formats
Station Details ID: 040913 Name: BRISBANE Lat: -27.48 Lon: 153.04 Height: 8.13 m
Data from the previous 72 hours. | See also: Recent months at Brisbane
Date/Time
EST
Tmp

°C
App
Tmp
°C
Dew
Point
°C
Rel
Hum
%
Delta-T

°C
Wind Press
QNH
hPa
Press
MSL
hPa
Rain
since
9 am
mm
Dir
 
Spd
km/h
Gust
km/h
Spd
kts
Gust
kts
06/08:30am 26.2 27.1 18.3 61 5.0 ESE 11 19 6 10 1009.6 1009.6 0.0
06/08:00am 25.7 26.8 17.9 62 4.9 ESE 9 17 5 9 1009.6 1009.6 0.0
06/07:30am 25.5 27.3 18.7 66 4.3 E 7 15 4 8 1009.4 1009.4 0.0
06/07:00am 24.4 26.7 18.6 70 3.7 E 4 9 2 5 1009.3 1009.3 0.0
06/06:30am 24.1 26.3 18.3 70 3.7 SE 4 7 2 4 1009.2 1009.2 0.0
06/06:00am 23.3 25.4 18.2 73 3.2 SE 4 6 2 3 1008.8 1008.8 0.0
06/05:30am 23.5 25.6 18.2 72 3.3 SE 4 9 2 5 1008.5 1008.5 0.0
06/05:00am 23.4 25.5 18.1 72 3.3 SE 4 9 2 5 1008.8 1008.8 0.0
06/04:30am 23.5 25.1 17.9 71 3.5 SE 6 11 3 6 1008.5 1008.5 0.0
06/04:00am 23.8 24.5 18.0 70 3.6 SE 11 24 6 13 1008.5 1008.5 0.0
06/03:30am 24.2 24.9 17.9 68 3.9 SE 11 22 6 12 1008.5 1008.5 0.0
06/03:00am 24.4 25.1 17.9 67 4.1 SE 11 19 6 10 1008.3 1008.3 0.0
06/02:30am 24.7 25.0 17.9 66 4.3 SE 13 24 7 13 1008.4 1008.4 0.0
06/02:00am 24.8 24.8 18.0 66 4.3 SE 15 26 8 14 1008.4 1008.4 0.0
06/01:30am 24.9 24.9 18.1 66 4.3 SE 15 28 8 15 1008.4 1008.4 0.0
06/01:00am 25.3 25.3 18.0 64 4.6 SE 15 33 8 18 1008.5 1008.5 0.0
06/12:30am 25.7 24.9 18.1 63 4.8 SE 19 37 10 20 1008.7 1008.7 0.0
06/12:00am 26.3 26.0 18.2 61 5.1 SE 17 35 9 19 1008.4 1008.4 0.0
 
Date/Time
EST
Tmp

°C
App
Tmp
°C
Dew
Point
°C
Rel
Hum
%
Delta-T

°C
Wind Press
QNH
hPa
Press
MSL
hPa
Rain
since
9 am
mm
Dir
 
Spd
km/h
Gust
km/h
Spd
kts
Gust
kts
05/11:30pm 26.8 26.8 18.9 62 5.1 SE 17 33 9 18 1007.7 1007.7 0.0
05/11:00pm 27.1 27.3 19.4 62 5.0 SE 17 37 9 20 1007.1 1007.1 0.0
05/10:30pm 27.5 28.1 20.3 65 4.7 SE 17 33 9 18 1006.8 1006.8 0.0
05/10:00pm 28.0 31.0 23.4 76 3.2 SE 13 32 7 17 1006.6 1006.6 0.0
05/09:30pm 28.3 31.2 23.9 77 3.0 SE 15 26 8 14 1006.3 1006.3 0.0
05/09:00pm 27.5 32.6 24.7 85 2.0 E 6 22 3 12 1005.8 1005.8 0.0
05/08:30pm 27.4 32.7 24.3 83 2.1 ENE 4 6 2 3 1004.9 1004.8 0.0
05/08:00pm 27.8 33.1 24.4 82 2.4 ENE 4 6 2 3 1004.7 1004.6 0.0
05/07:30pm 28.0 32.9 24.4 81 2.5 ENE 6 9 3 5 1004.3 1004.2 0.0
05/07:00pm 28.4 33.0 24.2 78 2.9 ENE 7 11 4 6 1004.0 1003.9 0.0
05/06:30pm 28.9 33.4 24.0 75 3.4 NE 7 13 4 7 1003.4 1003.3 0.0
05/06:00pm 29.4 33.5 24.0 72 3.8 ENE 9 15 5 8 1003.3 1003.2 0.0
05/05:30pm 30.1 33.9 24.0 70 4.2 ENE 11 19 6 10 1003.0 1002.9 0.0
05/05:00pm 31.3 34.9 23.7 64 5.3 NE 11 19 6 10 1002.7 1002.6 0.0
05/04:30pm 32.2 36.0 23.4 59 6.1 NE 9 15 5 8 1002.4 1002.3 0.0
05/04:00pm 32.4 36.3 24.2 62 5.8 ENE 11 15 6 8 1002.3 1002.2 0.0
05/03:30pm 32.3 35.6 23.8 61 5.9 ENE 13 20 7 11 1002.2 1002.1 0.0
05/03:00pm 33.1 36.7 23.7 57 6.6 NE 11 19 6 10 1002.6 1002.5 0.0
05/02:30pm 33.6 37.1 23.6 56 7.0 NE 11 19 6 10 1003.0 1002.9 0.0
05/02:00pm 33.8 36.9 22.9 53 7.5 NE 11 19 6 10 1003.5 1003.4 0.0
05/01:30pm 34.5 38.2 22.6 50 8.2 N 7 17 4 9 1004.1 1004.0 0.0
05/01:00pm 34.2 38.1 22.6 50 8.0 NE 6 13 3 7 1004.8 1004.7 0.0
05/12:30pm 34.7 37.1 18.7 38 10.5 WNW 4 11 2 6 1005.3 1005.2 0.0
05/12:00pm 33.6 36.6 20.0 44 9.1 WNW 4 9 2 5 1005.8 1005.8 0.0
05/11:30am 32.9 36.2 21.4 50 7.8 NNE 6 9 3 5 1006.4 1006.4 0.0
05/11:00am 32.5 36.1 22.0 54 7.2 NNE 6 7 3 4 1006.9 1006.9 0.0
05/10:30am 31.7 35.6 21.2 53 7.1 SSW 2 6 1 3 1007.5 1007.5 0.0
05/10:00am 30.6 34.1 21.1 57 6.4 NW 4 7 2 4 1008.0 1008.0 0.0
05/09:30am 29.6 32.9 20.7 58 5.9 WNW 4 9 2 5 1008.3 1008.3 0.0
05/09:00am 29.0 33.1 20.7 61 5.5 CALM 0 4 0 2 1008.6 1008.6 0.0
05/08:30am 27.5 31.5 20.6 66 4.5 CALM 0 4 0 2 1008.9 1008.9 0.0
05/08:00am 26.6 30.2 19.7 66 4.5 CALM 0 2 0 1 1009.0 1009.0 0.0
05/07:30am 25.5 28.6 19.6 70 3.8 E 2 4 1 2 1009.0 1009.0 0.0
05/07:00am 24.5 27.9 20.2 77 2.8 SSW 2 6 1 3 1008.9 1008.9 0.0
05/06:30am 22.8 26.8 20.5 87 1.5 CALM 0 0 0 0 1008.7 1008.7 0.0
05/06:00am 21.7 25.3 19.8 89 1.2 CALM 0 0 0 0 1008.5 1008.5 0.0
05/05:30am 21.6 25.1 19.5 88 1.3 CALM 0 0 0 0 1008.2 1008.2 0.0
05/05:00am 21.9 25.4 19.5 86 1.5 CALM 0 0 0 0 1008.2 1008.2 0.0
05/04:30am 22.1 25.6 19.5 85 1.7 CALM 0 0 0 0 1008.2 1008.2 0.0
05/04:00am 22.5 25.9 19.3 82 2.0 CALM 0 2 0 1 1008.2 1008.2 0.0
05/03:30am 22.8 26.2 19.4 81 2.2 CALM 0 0 0 0 1008.4 1008.4 0.0
05/03:00am 23.4 26.6 19.8 80 2.3 NNE 2 6 1 3 1008.5 1008.5 0.0
05/02:30am 23.6 26.4 19.7 79 2.5 NNE 4 9 2 5 1008.7 1008.7 0.0
05/02:00am 23.8 26.6 19.7 78 2.6 N 4 9 2 5 1009.3 1009.3 0.0
05/01:30am 23.9 27.1 19.8 78 2.6 N 2 9 1 5 1009.7 1009.7 0.0
05/01:00am 24.1 26.6 19.8 77 2.8 N 6 11 3 6 1010.0 1010.0 0.0
05/12:30am 24.3 26.8 19.8 76 2.9 NNW 6 17 3 9 1010.5 1010.5 0.0
05/12:00am 24.4 27.2 19.7 75 3.0 N 4 9 2 5 1010.8 1010.8 0.0
 
Date/Time
EST
Tmp

°C
App
Tmp
°C
Dew
Point
°C
Rel
Hum
%
Delta-T

°C
Wind Press
QNH
hPa
Press
MSL
hPa
Rain
since
9 am
mm
Dir
 
Spd
km/h
Gust
km/h
Spd
kts
Gust
kts
04/11:30pm 24.7 27.2 19.8 74 3.2 NNW 6 11 3 6 1011.2 1011.2 0.0
04/11:00pm 24.9 27.3 19.7 73 3.4 N 6 13 3 7 1011.4 1011.4 0.0
04/10:30pm 25.0 27.4 19.6 72 3.5 N 6 11 3 6 1011.8 1011.8 0.0
04/10:00pm 25.2 28.1 19.8 72 3.5 N 4 9 2 5 1011.9 1011.9 0.0
04/09:30pm 25.3 28.2 19.9 72 3.5 N 4 13 2 7 1012.1 1012.1 0.0
04/09:00pm 25.4 27.9 19.8 71 3.6 N 6 9 3 5 1012.2 1012.2 0.0
04/08:30pm 25.5 28.2 19.4 69 3.9 N 4 9 2 5 1012.2 1012.2 0.0
04/08:00pm 25.6 28.2 19.3 68 4.1 NNE 4 9 2 5 1011.9 1011.9 0.0
04/07:30pm 25.7 28.1 19.6 69 3.9 NNE 6 13 3 7 1011.7 1011.7 0.0
04/07:00pm 26.0 28.3 19.9 69 4.0 NNE 7 13 4 7 1011.4 1011.4 0.0
04/06:30pm 26.2 28.5 19.8 68 4.2 NNE 7 20 4 11 1011.2 1011.2 0.0
04/06:00pm 26.9 29.2 19.8 65 4.6 N 7 13 4 7 1011.0 1011.0 0.0
04/05:30pm 27.8 29.8 19.1 59 5.6 NNE 7 15 4 8 1010.9 1010.9 0.0
04/05:00pm 28.3 29.3 18.7 56 6.2 NE 11 17 6 9 1010.7 1010.7 0.0
04/04:30pm 28.9 30.3 18.7 54 6.6 NE 9 15 5 8 1010.7 1010.7 0.0
04/04:00pm 29.3 30.8 19.0 53 6.7 ENE 9 17 5 9 1010.6 1010.6 0.0
04/03:30pm 29.5 30.5 18.6 52 7.0 NE 11 15 6 8 1010.7 1010.7 0.0
04/03:00pm 29.9 31.5 18.3 49 7.5 NNE 7 13 4 7 1010.9 1010.9 0.0
04/02:30pm 30.2 31.9 19.3 52 7.1 NE 9 17 5 9 1011.2 1011.2 0.0
04/02:00pm 29.8 31.3 18.9 52 7.1 NE 9 15 5 8 1011.4 1011.4 0.0
04/01:30pm 29.7 30.8 18.8 52 7.0 ENE 11 22 6 12 1011.9 1011.9 0.0
04/01:00pm 29.5 30.9 18.6 52 7.0 ENE 9 15 5 8 1012.5 1012.5 0.0
04/12:30pm 29.5 31.0 18.0 50 7.3 NE 7 15 4 8 1012.8 1012.8 0.0
04/12:00pm 29.3 31.0 18.4 51 7.0 ENE 7 13 4 7 1013.3 1013.3 0.0
04/11:30am 29.0 30.5 18.1 51 7.0 E 7 13 4 7 1013.6 1013.6 0.0
04/11:00am 28.8 30.5 18.0 52 6.9 E 6 13 3 7 1014.1 1014.1 0.0
04/10:30am 29.0 31.2 18.4 52 6.8 ESE 4 9 2 5 1014.4 1014.4 0.0
04/10:00am 27.8 29.9 18.2 56 6.1 W 4 7 2 4 1014.4 1014.4 0.0
04/09:30am 27.4 29.6 19.5 62 5.1 W 7 9 4 5 1014.7 1014.7 0.0
04/09:00am 27.2 29.6 18.8 60 5.4 NW 4 9 2 5 1014.8 1014.8 0.0
04/08:30am 26.1 28.7 19.2 65 4.4 WSW 4 9 2 5 1014.9 1014.9 0.0
04/08:00am 24.8 27.4 19.2 71 3.6 WSW 4 9 2 5 1014.7 1014.7 0.0
04/07:30am 24.1 26.6 19.0 73 3.2 SW 4 6 2 3 1014.3 1014.3 0.0
04/07:00am 23.0 26.1 19.4 80 2.3 SW 2 4 1 2 1013.9 1013.9 0.0
04/06:30am 21.9 24.6 19.5 86 1.5 SW 4 6 2 3 1013.7 1013.7 0.0
04/06:00am 20.8 24.0 18.9 89 1.2 CALM 0 4 0 2 1013.6 1013.6 0.0
04/05:30am 21.3 24.2 19.0 87 1.5 WSW 2 4 1 2 1013.3 1013.3 0.0
04/05:00am 21.5 24.9 19.4 88 1.3 CALM 0 4 0 2 1013.3 1013.3 0.0
04/04:30am 21.2 24.4 19.8 92 0.9 SSW 2 6 1 3 1013.0 1013.0 0.0
04/04:00am 20.0 22.9 18.3 90 1.1 CALM 0 2 0 1 1012.7 1012.7 0.0
04/03:30am 20.2 23.1 18.1 88 1.3 CALM 0 0 0 0 1012.7 1012.7 0.0
04/03:00am 20.3 23.2 18.1 87 1.4 CALM 0 0 0 0 1013.1 1013.1 0.0
04/02:30am 20.7 23.7 18.5 87 1.4 CALM 0 0 0 0 1013.5 1013.5 0.0
04/02:00am 20.9 23.7 17.9 83 1.9 CALM 0 0 0 0 1013.7 1013.7 0.0
04/01:30am 21.2 24.2 18.4 84 1.7 CALM 0 0 0 0 1014.1 1014.1 0.0
04/01:00am 21.7 24.6 18.3 81 2.1 CALM 0 0 0 0 1014.6 1014.6 0.0
04/12:30am 22.0 25.1 18.6 81 2.1 CALM 0 0 0 0 1015.0 1015.0 0.0
04/12:00am 22.0 25.2 18.8 82 2.0 CALM 0 0 0 0 1015.3 1015.3 0.0
 
Date/Time
EST
Tmp

°C
App
Tmp
°C
Dew
Point
°C
Rel
Hum
%
Delta-T

°C
Wind Press
QNH
hPa
Press
MSL
hPa
Rain
since
9 am
mm
Dir
 
Spd
km/h
Gust
km/h
Spd
kts
Gust
kts
03/11:30pm 22.2 24.9 18.6 80 2.3 ESE 2 4 1 2 1015.6 1015.6 0.0
03/11:00pm 22.5 25.3 18.9 80 2.3 ESE 2 2 1 1 1015.7 1015.7 0.0
03/10:30pm 22.4 25.6 18.8 80 2.3 CALM 0 2 0 1 1015.6 1015.6 0.0
03/10:00pm 22.6 25.7 18.6 78 2.5 CALM 0 0 0 0 1015.6 1015.6 0.0
03/09:30pm 23.5 26.3 18.8 75 3.0 E 2 4 1 2 1015.6 1015.6 0.0
03/09:00pm 23.8 27.0 18.9 74 3.1 CALM 0 2 0 1 1015.4 1015.4 0.0
03/08:30pm 24.0 26.8 18.9 73 3.2 E 2 6 1 3 1015.2 1015.2 0.0
03/08:00pm 24.4 26.7 18.6 70 3.7 E 4 6 2 3 1015.0 1015.0 0.0
03/07:30pm 24.7 26.6 18.6 69 3.9 E 6 9 3 5 1014.6 1014.6 0.0
03/07:00pm 24.9 26.8 18.6 68 4.0 E 6 9 3 5 1014.2 1014.2 0.0
03/06:30pm 25.5 26.9 18.7 66 4.3 E 9 15 5 8 1013.9 1013.9 0.0
03/06:00pm 26.1 27.6 19.0 65 4.5 E 9 17 5 9 1013.6 1013.6 0.0
03/05:30pm 27.1 28.2 18.9 61 5.3 E 11 17 6 9 1013.3 1013.3 0.0
03/05:00pm 27.7 28.7 18.7 58 5.8 E 11 17 6 9 1013.1 1013.1 0.0
03/04:30pm 28.5 29.9 18.6 55 6.4 E 9 19 5 10 1012.8 1012.8 0.0
03/04:00pm 28.5 29.6 18.9 56 6.2 ENE 11 19 6 10 1012.7 1012.7 0.0
03/03:30pm 28.9 29.4 19.2 55 6.3 ENE 15 24 8 13 1012.6 1012.6 0.0
03/03:00pm 29.1 29.7 19.4 55 6.3 ENE 15 22 8 12 1012.6 1012.6 0.0
03/02:30pm 29.8 30.7 18.3 50 7.4 E 11 17 6 9 1012.8 1012.8 0.0
03/02:00pm 30.2 31.6 17.3 46 8.2 E 6 13 3 7 1013.0 1013.0 0.0
03/01:30pm 30.2 31.6 17.3 46 8.2 SE 6 15 3 8 1013.6 1013.6 0.0
03/01:00pm 29.3 30.4 16.5 46 8.0 SE 6 15 3 8 1014.0 1014.0 0.0
03/12:30pm 29.1 30.4 17.0 48 7.6 ENE 6 11 3 6 1014.3 1014.3 0.0
03/12:00pm 29.0 29.5 16.5 46 7.8 ESE 9 15 5 8 1014.8 1014.8 0.0
03/11:30am 29.1 30.4 17.6 50 7.3 E 7 19 4 10 1014.9 1014.9 0.0
03/11:00am 29.2 30.6 18.6 52 6.8 ESE 9 15 5 8 1015.4 1015.4 0.0
03/10:30am 27.9 29.1 17.4 52 6.6 SE 7 13 4 7 1015.9 1015.9 0.0
03/10:00am 28.3 28.9 16.9 50 7.1 ESE 9 19 5 10 1016.0 1016.0 0.0
03/09:30am 27.7 29.2 18.1 56 6.1 SE 7 15 4 8 1015.9 1015.9 0.0
03/09:00am 27.2 29.4 19.5 62 5.0 SE 7 15 4 8 1015.9 1015.9 0.0

Latest Capital City Observations: Canberra | Sydney | Melbourne | Brisbane | Adelaide | Perth | Hobart | Darwin

Other Formats:

Comma delimited format used in spreadsheet applications
http://www.bom.gov.au/fwo/IDQ60901/IDQ60901.94576.axf

JavaScript Object Notation format (JSON) in row-major order
http://www.bom.gov.au/fwo/IDQ60901/IDQ60901.94576.json